首页
METAR-TAF:

METAR-TAF

机场 :

那不勒斯國際機場

那不勒斯, 意大利

纬度: 40-51N, 经度: 014-18E, 海拔: 88米

当前天气观测

该预报发布于23分钟前的16:50 UTC
风速5节,风向北转西北,在西北转东北之间变化
温度 25°C
湿度 47%
气压 1007 hPa
能见度10公里或以上
少量云层高于5000英尺

METAR: LIRN 041650Z 33005KT 280V030 9999 FEW050 25/13 Q1007 NOSIG

时间: 19:13 (17:13 UTC)

预报

该预报发布于6小时和13分钟前的11:00 UTC
预报有效从04日的 12点(UTC)到 05日的 12点(UTC)
风速12节,风向西
能见度10公里或以上
散云层高于3000英尺
成为
从 04日的 17点(UTC)到 04日的 19点(UTC)
风速5节,风向多变
短暂存在
从 05日的 00点(UTC)到 05日的 08点(UTC)
能見度: 4000
雷暴, 雨

TAF: LIRN 041100Z 0412/0512 28012KT 9999 SCT030 BECMG 0417/0419 VRB05KT TEMPO 0500/0508 4000 TSRA

超过4000个机场的气象观测和天气预报(METAR&TAF报告)。

可查询的气象台以黄色和红色小点在地图上表示。

将鼠标移到小点上方,可查看气象台名称。

然后点击查看天气观测和预报。

如需切换地图:点击带黑十字的绿色按钮放大地图;点击带横线的绿色按钮缩小地图;或者点击绿色箭头查看邻近地区的地图。


METAR-TAF: